sensor_id;sensor_type;location;lat;lon;timestamp;temperature;humidity
17178;DHT22;8704;52.006;4.374;2023-06-14T00:02:09;19.90;1.00
17178;DHT22;8704;52.006;4.374;2023-06-14T00:04:37;19.90;1.00
17178;DHT22;8704;52.006;4.374;2023-06-14T00:07:09;19.90;1.00
17178;DHT22;8704;52.006;4.374;2023-06-14T00:09:40;19.80;1.00
17178;DHT22;8704;52.006;4.374;2023-06-14T00:12:08;19.90;1.00
17178;DHT22;8704;52.006;4.374;2023-06-14T00:14:36;19.70;1.00
17178;DHT22;8704;52.006;4.374;2023-06-14T00:17:04;19.70;1.00
17178;DHT22;8704;52.006;4.374;2023-06-14T00:19:34;19.60;1.00
17178;DHT22;8704;52.006;4.374;2023-06-14T00:22:03;20.00;1.00
17178;DHT22;8704;52.006;4.374;2023-06-14T00:24:33;19.50;1.00
17178;DHT22;8704;52.006;4.374;2023-06-14T00:27:01;20.20;1.00
17178;DHT22;8704;52.006;4.374;2023-06-14T00:29:29;19.50;1.00
17178;DHT22;8704;52.006;4.374;2023-06-14T00:31:57;19.40;1.00
17178;DHT22;8704;52.006;4.374;2023-06-14T00:34:25;19.40;1.00
17178;DHT22;8704;52.006;4.374;2023-06-14T00:36:53;19.40;1.00
17178;DHT22;8704;52.006;4.374;2023-06-14T00:39:21;19.40;1.00
17178;DHT22;8704;52.006;4.374;2023-06-14T00:41:50;19.40;1.00
17178;DHT22;8704;52.006;4.374;2023-06-14T00:44:18;19.20;1.00
17178;DHT22;8704;52.006;4.374;2023-06-14T00:46:46;19.30;1.00
17178;DHT22;8704;52.006;4.374;2023-06-14T00:49:15;19.20;1.00
17178;DHT22;8704;52.006;4.374;2023-06-14T00:51:43;19.10;1.00
17178;DHT22;8704;52.006;4.374;2023-06-14T00:54:12;19.10;1.00
17178;DHT22;8704;52.006;4.374;2023-06-14T00:56:40;18.90;1.00
17178;DHT22;8704;52.006;4.374;2023-06-14T00:59:11;19.00;1.00
17178;DHT22;8704;52.006;4.374;2023-06-14T01:01:39;19.40;1.00
17178;DHT22;8704;52.006;4.374;2023-06-14T01:04:07;19.00;1.00
17178;DHT22;8704;52.006;4.374;2023-06-14T01:06:41;18.90;1.00
17178;DHT22;8704;52.006;4.374;2023-06-14T01:09:17;18.90;1.00
17178;DHT22;8704;52.006;4.374;2023-06-14T01:11:52;18.80;1.00
17178;DHT22;8704;52.006;4.374;2023-06-14T01:14:24;18.80;1.00
17178;DHT22;8704;52.006;4.374;2023-06-14T01:16:53;18.70;1.00
17178;DHT22;8704;52.006;4.374;2023-06-14T01:19:23;18.70;1.00
17178;DHT22;8704;52.006;4.374;2023-06-14T01:21:52;18.70;1.00
17178;DHT22;8704;52.006;4.374;2023-06-14T01:24:23;18.60;1.00
17178;DHT22;8704;52.006;4.374;2023-06-14T01:26:53;18.70;1.00
17178;DHT22;8704;52.006;4.374;2023-06-14T01:29:23;18.90;1.00
17178;DHT22;8704;52.006;4.374;2023-06-14T01:31:54;18.80;1.00
17178;DHT22;8704;52.006;4.374;2023-06-14T01:34:22;18.60;1.00
17178;DHT22;8704;52.006;4.374;2023-06-14T01:36:51;18.50;1.00
17178;DHT22;8704;52.006;4.374;2023-06-14T01:39:19;18.50;1.00
17178;DHT22;8704;52.006;4.374;2023-06-14T01:41:50;18.50;1.00
17178;DHT22;8704;52.006;4.374;2023-06-14T01:44:19;18.60;1.00
17178;DHT22;8704;52.006;4.374;2023-06-14T01:46:48;18.40;1.00
17178;DHT22;8704;52.006;4.374;2023-06-14T01:49:16;18.50;1.00
17178;DHT22;8704;52.006;4.374;2023-06-14T01:51:44;18.50;1.00
17178;DHT22;8704;52.006;4.374;2023-06-14T01:54:12;18.20;1.00
17178;DHT22;8704;52.006;4.374;2023-06-14T01:56:40;18.10;1.00
17178;DHT22;8704;52.006;4.374;2023-06-14T01:59:09;18.20;1.00
17178;DHT22;8704;52.006;4.374;2023-06-14T02:01:37;18.20;1.00
17178;DHT22;8704;52.006;4.374;2023-06-14T02:04:05;18.00;1.00
17178;DHT22;8704;52.006;4.374;2023-06-14T02:06:33;18.00;1.00
17178;DHT22;8704;52.006;4.374;2023-06-14T02:09:02;17.90;1.00
17178;DHT22;8704;52.006;4.374;2023-06-14T02:11:30;17.90;1.00
17178;DHT22;8704;52.006;4.374;2023-06-14T02:13:58;17.90;1.00
17178;DHT22;8704;52.006;4.374;2023-06-14T02:16:28;17.90;1.00
17178;DHT22;8704;52.006;4.374;2023-06-14T02:18:57;17.90;1.00
17178;DHT22;8704;52.006;4.374;2023-06-14T02:21:25;17.80;1.00
17178;DHT22;8704;52.006;4.374;2023-06-14T02:23:53;17.70;1.00
17178;DHT22;8704;52.006;4.374;2023-06-14T02:26:21;17.80;1.00
17178;DHT22;8704;52.006;4.374;2023-06-14T02:28:49;17.60;1.00
17178;DHT22;8704;52.006;4.374;2023-06-14T02:31:17;17.60;1.00
17178;DHT22;8704;52.006;4.374;2023-06-14T02:33:46;17.50;1.00
17178;DHT22;8704;52.006;4.374;2023-06-14T02:36:14;17.50;1.00
17178;DHT22;8704;52.006;4.374;2023-06-14T02:38:42;17.40;1.00
17178;DHT22;8704;52.006;4.374;2023-06-14T02:41:10;17.60;1.00
17178;DHT22;8704;52.006;4.374;2023-06-14T02:43:38;17.40;1.00
17178;DHT22;8704;52.006;4.374;2023-06-14T02:46:06;17.70;1.00
17178;DHT22;8704;52.006;4.374;2023-06-14T02:48:34;17.30;1.00
17178;DHT22;8704;52.006;4.374;2023-06-14T02:51:03;17.30;1.00
17178;DHT22;8704;52.006;4.374;2023-06-14T02:53:35;17.20;1.00
17178;DHT22;8704;52.006;4.374;2023-06-14T02:56:04;17.20;1.00
17178;DHT22;8704;52.006;4.374;2023-06-14T02:58:31;17.20;1.00
17178;DHT22;8704;52.006;4.374;2023-06-14T03:00:59;17.60;1.00
17178;DHT22;8704;52.006;4.374;2023-06-14T03:03:30;17.10;1.00
17178;DHT22;8704;52.006;4.374;2023-06-14T03:05:58;17.10;1.00
17178;DHT22;8704;52.006;4.374;2023-06-14T03:08:32;17.00;1.00
17178;DHT22;8704;52.006;4.374;2023-06-14T03:11:05;17.00;1.00
17178;DHT22;8704;52.006;4.374;2023-06-14T03:13:33;17.00;1.00
17178;DHT22;8704;52.006;4.374;2023-06-14T03:16:01;16.90;1.00
17178;DHT22;8704;52.006;4.374;2023-06-14T03:18:30;16.90;1.00
17178;DHT22;8704;52.006;4.374;2023-06-14T03:21:02;16.90;1.00
17178;DHT22;8704;52.006;4.374;2023-06-14T03:23:30;16.80;1.00
17178;DHT22;8704;52.006;4.374;2023-06-14T03:25:59;16.80;1.00
17178;DHT22;8704;52.006;4.374;2023-06-14T03:28:27;16.70;1.00
17178;DHT22;8704;52.006;4.374;2023-06-14T03:30:55;17.10;1.00
17178;DHT22;8704;52.006;4.374;2023-06-14T03:33:23;16.90;1.00
17178;DHT22;8704;52.006;4.374;2023-06-14T03:35:52;16.70;1.00
17178;DHT22;8704;52.006;4.374;2023-06-14T03:38:20;16.60;1.00
17178;DHT22;8704;52.006;4.374;2023-06-14T03:40:48;16.70;1.00
17178;DHT22;8704;52.006;4.374;2023-06-14T03:43:17;16.60;1.00
17178;DHT22;8704;52.006;4.374;2023-06-14T03:45:45;16.70;1.00
17178;DHT22;8704;52.006;4.374;2023-06-14T03:48:13;16.50;1.00
17178;DHT22;8704;52.006;4.374;2023-06-14T03:50:41;16.50;1.00
17178;DHT22;8704;52.006;4.374;2023-06-14T03:53:11;16.50;1.00
17178;DHT22;8704;52.006;4.374;2023-06-14T03:55:39;16.50;1.00
17178;DHT22;8704;52.006;4.374;2023-06-14T03:58:11;16.50;1.00
17178;DHT22;8704;52.006;4.374;2023-06-14T04:00:41;16.40;1.00
17178;DHT22;8704;52.006;4.374;2023-06-14T04:03:10;16.40;1.00
17178;DHT22;8704;52.006;4.374;2023-06-14T04:05:40;16.40;1.00
17178;DHT22;8704;52.006;4.374;2023-06-14T04:08:09;16.40;1.00
17178;DHT22;8704;52.006;4.374;2023-06-14T04:10:37;16.60;1.00
17178;DHT22;8704;52.006;4.374;2023-06-14T04:13:05;16.40;1.00
17178;DHT22;8704;52.006;4.374;2023-06-14T04:15:33;16.40;1.00
17178;DHT22;8704;52.006;4.374;2023-06-14T04:18:04;16.40;1.00
17178;DHT22;8704;52.006;4.374;2023-06-14T04:20:32;16.40;1.00
17178;DHT22;8704;52.006;4.374;2023-06-14T04:23:11;16.40;1.00
17178;DHT22;8704;52.006;4.374;2023-06-14T04:25:40;16.40;1.00
17178;DHT22;8704;52.006;4.374;2023-06-14T04:28:12;16.40;1.00
17178;DHT22;8704;52.006;4.374;2023-06-14T04:30:42;16.40;1.00
17178;DHT22;8704;52.006;4.374;2023-06-14T04:33:11;16.40;1.00
17178;DHT22;8704;52.006;4.374;2023-06-14T04:35:41;16.40;1.00
17178;DHT22;8704;52.006;4.374;2023-06-14T04:38:09;16.40;1.00
17178;DHT22;8704;52.006;4.374;2023-06-14T04:40:37;16.50;1.00
17178;DHT22;8704;52.006;4.374;2023-06-14T04:43:09;16.50;1.00
17178;DHT22;8704;52.006;4.374;2023-06-14T04:45:39;16.50;1.00
17178;DHT22;8704;52.006;4.374;2023-06-14T04:48:07;16.50;1.00
17178;DHT22;8704;52.006;4.374;2023-06-14T04:50:38;16.50;1.00
17178;DHT22;8704;52.006;4.374;2023-06-14T04:53:07;16.60;1.00
17178;DHT22;8704;52.006;4.374;2023-06-14T04:55:35;16.50;1.00
17178;DHT22;8704;52.006;4.374;2023-06-14T04:58:04;16.60;1.00
17178;DHT22;8704;52.006;4.374;2023-06-14T05:00:31;16.60;1.00
17178;DHT22;8704;52.006;4.374;2023-06-14T05:02:59;16.70;1.00
17178;DHT22;8704;52.006;4.374;2023-06-14T05:05:27;16.70;1.00
17178;DHT22;8704;52.006;4.374;2023-06-14T05:07:57;16.70;1.00
17178;DHT22;8704;52.006;4.374;2023-06-14T05:10:25;16.70;1.00
17178;DHT22;8704;52.006;4.374;2023-06-14T05:12:53;16.80;1.00
17178;DHT22;8704;52.006;4.374;2023-06-14T05:15:21;16.90;1.00
17178;DHT22;8704;52.006;4.374;2023-06-14T05:17:52;17.00;1.00
17178;DHT22;8704;52.006;4.374;2023-06-14T05:20:22;16.90;1.00
17178;DHT22;8704;52.006;4.374;2023-06-14T05:22:51;17.00;1.00
17178;DHT22;8704;52.006;4.374;2023-06-14T05:25:21;17.20;1.00
17178;DHT22;8704;52.006;4.374;2023-06-14T05:27:49;17.40;1.00
17178;DHT22;8704;52.006;4.374;2023-06-14T05:30:17;17.20;1.00
17178;DHT22;8704;52.006;4.374;2023-06-14T05:32:45;17.20;1.00
17178;DHT22;8704;52.006;4.374;2023-06-14T05:35:13;17.60;1.00
17178;DHT22;8704;52.006;4.374;2023-06-14T05:37:41;17.30;1.00
17178;DHT22;8704;52.006;4.374;2023-06-14T05:40:10;17.40;1.00
17178;DHT22;8704;52.006;4.374;2023-06-14T05:42:40;17.40;1.00
17178;DHT22;8704;52.006;4.374;2023-06-14T05:45:08;17.50;1.00
17178;DHT22;8704;52.006;4.374;2023-06-14T05:47:36;17.50;1.00
17178;DHT22;8704;52.006;4.374;2023-06-14T05:50:05;17.50;1.00
17178;DHT22;8704;52.006;4.374;2023-06-14T05:52:34;17.50;1.00
17178;DHT22;8704;52.006;4.374;2023-06-14T05:55:04;17.60;1.00
17178;DHT22;8704;52.006;4.374;2023-06-14T05:57:32;17.60;1.00
17178;DHT22;8704;52.006;4.374;2023-06-14T06:00:05;17.70;1.00
17178;DHT22;8704;52.006;4.374;2023-06-14T06:02:37;17.70;1.00
17178;DHT22;8704;52.006;4.374;2023-06-14T06:05:06;17.80;1.00
17178;DHT22;8704;52.006;4.374;2023-06-14T06:07:35;17.80;1.00
17178;DHT22;8704;52.006;4.374;2023-06-14T06:10:05;17.90;1.00
17178;DHT22;8704;52.006;4.374;2023-06-14T06:12:33;18.00;1.00
17178;DHT22;8704;52.006;4.374;2023-06-14T06:15:02;18.00;1.00
17178;DHT22;8704;52.006;4.374;2023-06-14T06:17:31;18.00;1.00
17178;DHT22;8704;52.006;4.374;2023-06-14T06:20:12;18.20;1.00
17178;DHT22;8704;52.006;4.374;2023-06-14T06:22:40;18.50;1.00
17178;DHT22;8704;52.006;4.374;2023-06-14T06:25:08;18.20;1.00
17178;DHT22;8704;52.006;4.374;2023-06-14T06:27:36;18.30;1.00
17178;DHT22;8704;52.006;4.374;2023-06-14T06:30:07;18.30;1.00
17178;DHT22;8704;52.006;4.374;2023-06-14T06:32:35;18.40;1.00
17178;DHT22;8704;52.006;4.374;2023-06-14T06:35:04;18.40;1.00
17178;DHT22;8704;52.006;4.374;2023-06-14T06:37:33;18.50;1.00
17178;DHT22;8704;52.006;4.374;2023-06-14T06:40:00;18.70;1.00
17178;DHT22;8704;52.006;4.374;2023-06-14T06:42:30;18.70;1.00
17178;DHT22;8704;52.006;4.374;2023-06-14T06:44:58;18.70;1.00
17178;DHT22;8704;52.006;4.374;2023-06-14T06:47:27;18.80;1.00
17178;DHT22;8704;52.006;4.374;2023-06-14T06:49:58;18.80;1.00
17178;DHT22;8704;52.006;4.374;2023-06-14T06:52:26;19.10;1.00
17178;DHT22;8704;52.006;4.374;2023-06-14T06:54:54;18.90;1.00
17178;DHT22;8704;52.006;4.374;2023-06-14T06:57:22;19.00;1.00
17178;DHT22;8704;52.006;4.374;2023-06-14T06:59:50;19.00;1.00
17178;DHT22;8704;52.006;4.374;2023-06-14T07:02:18;19.10;1.00
17178;DHT22;8704;52.006;4.374;2023-06-14T07:04:47;19.30;1.00
17178;DHT22;8704;52.006;4.374;2023-06-14T07:07:17;19.20;1.00
17178;DHT22;8704;52.006;4.374;2023-06-14T07:09:45;19.30;1.00
17178;DHT22;8704;52.006;4.374;2023-06-14T07:12:13;19.40;1.00
17178;DHT22;8704;52.006;4.374;2023-06-14T07:14:41;19.40;1.00
17178;DHT22;8704;52.006;4.374;2023-06-14T07:17:09;19.50;1.00
17178;DHT22;8704;52.006;4.374;2023-06-14T07:19:37;19.50;1.00
17178;DHT22;8704;52.006;4.374;2023-06-14T07:22:06;19.60;1.00
17178;DHT22;8704;52.006;4.374;2023-06-14T07:24:35;19.60;1.00
17178;DHT22;8704;52.006;4.374;2023-06-14T07:27:03;19.70;1.00
17178;DHT22;8704;52.006;4.374;2023-06-14T07:29:31;19.80;1.00
17178;DHT22;8704;52.006;4.374;2023-06-14T07:31:59;19.80;1.00
17178;DHT22;8704;52.006;4.374;2023-06-14T07:34:27;19.80;1.00
17178;DHT22;8704;52.006;4.374;2023-06-14T07:36:55;19.90;1.00
17178;DHT22;8704;52.006;4.374;2023-06-14T07:39:24;20.10;1.00
17178;DHT22;8704;52.006;4.374;2023-06-14T07:41:52;20.10;1.00
17178;DHT22;8704;52.006;4.374;2023-06-14T07:44:20;20.20;1.00
17178;DHT22;8704;52.006;4.374;2023-06-14T07:46:48;20.60;1.00
17178;DHT22;8704;52.006;4.374;2023-06-14T07:49:16;20.30;1.00
17178;DHT22;8704;52.006;4.374;2023-06-14T07:51:44;20.50;1.00
17178;DHT22;8704;52.006;4.374;2023-06-14T07:54:13;20.40;1.00
17178;DHT22;8704;52.006;4.374;2023-06-14T07:56:43;20.50;1.00
17178;DHT22;8704;52.006;4.374;2023-06-14T07:59:11;20.50;1.00
17178;DHT22;8704;52.006;4.374;2023-06-14T08:01:39;20.80;1.00
17178;DHT22;8704;52.006;4.374;2023-06-14T08:04:13;20.70;1.00
17178;DHT22;8704;52.006;4.374;2023-06-14T08:06:42;20.80;1.00
17178;DHT22;8704;52.006;4.374;2023-06-14T08:09:11;20.90;1.00
17178;DHT22;8704;52.006;4.374;2023-06-14T08:11:39;21.00;1.00
17178;DHT22;8704;52.006;4.374;2023-06-14T08:14:08;21.00;1.00
17178;DHT22;8704;52.006;4.374;2023-06-14T08:16:36;21.40;1.00
17178;DHT22;8704;52.006;4.374;2023-06-14T08:19:04;21.20;1.00
17178;DHT22;8704;52.006;4.374;2023-06-14T08:21:36;21.30;1.00
17178;DHT22;8704;52.006;4.374;2023-06-14T08:24:04;21.30;1.00
17178;DHT22;8704;52.006;4.374;2023-06-14T08:26:32;21.40;1.00
17178;DHT22;8704;52.006;4.374;2023-06-14T08:29:00;21.60;1.00
17178;DHT22;8704;52.006;4.374;2023-06-14T08:31:29;21.60;1.00
17178;DHT22;8704;52.006;4.374;2023-06-14T08:33:58;21.70;1.00
17178;DHT22;8704;52.006;4.374;2023-06-14T08:36:26;21.80;1.00
17178;DHT22;8704;52.006;4.374;2023-06-14T08:38:54;21.90;1.00
17178;DHT22;8704;52.006;4.374;2023-06-14T08:41:23;21.90;1.00
17178;DHT22;8704;52.006;4.374;2023-06-14T08:43:51;22.00;1.00
17178;DHT22;8704;52.006;4.374;2023-06-14T08:46:19;22.10;1.00
17178;DHT22;8704;52.006;4.374;2023-06-14T08:48:51;22.20;1.00
17178;DHT22;8704;52.006;4.374;2023-06-14T08:51:19;22.20;1.00
17178;DHT22;8704;52.006;4.374;2023-06-14T08:53:53;22.30;1.00
17178;DHT22;8704;52.006;4.374;2023-06-14T08:56:25;22.40;1.00
17178;DHT22;8704;52.006;4.374;2023-06-14T08:58:55;22.50;1.00
17178;DHT22;8704;52.006;4.374;2023-06-14T09:01:23;22.50;1.00
17178;DHT22;8704;52.006;4.374;2023-06-14T09:03:53;22.60;1.00
17178;DHT22;8704;52.006;4.374;2023-06-14T09:06:23;22.70;1.00
17178;DHT22;8704;52.006;4.374;2023-06-14T09:08:52;22.90;1.00
17178;DHT22;8704;52.006;4.374;2023-06-14T09:11:20;22.90;1.00
17178;DHT22;8704;52.006;4.374;2023-06-14T09:13:49;23.00;1.00
17178;DHT22;8704;52.006;4.374;2023-06-14T09:16:17;23.00;1.00
17178;DHT22;8704;52.006;4.374;2023-06-14T09:18:46;23.10;1.00
17178;DHT22;8704;52.006;4.374;2023-06-14T09:21:17;23.30;1.00
17178;DHT22;8704;52.006;4.374;2023-06-14T09:23:46;23.30;1.00
17178;DHT22;8704;52.006;4.374;2023-06-14T09:26:16;23.50;1.00
17178;DHT22;8704;52.006;4.374;2023-06-14T09:28:45;23.50;1.00
17178;DHT22;8704;52.006;4.374;2023-06-14T09:31:15;23.60;1.00
17178;DHT22;8704;52.006;4.374;2023-06-14T09:33:44;23.60;1.00
17178;DHT22;8704;52.006;4.374;2023-06-14T09:36:17;23.80;1.00
17178;DHT22;8704;52.006;4.374;2023-06-14T09:38:52;23.90;1.00
17178;DHT22;8704;52.006;4.374;2023-06-14T09:41:21;23.90;1.00
17178;DHT22;8704;52.006;4.374;2023-06-14T09:43:49;24.10;1.00
17178;DHT22;8704;52.006;4.374;2023-06-14T09:46:18;24.10;1.00
17178;DHT22;8704;52.006;4.374;2023-06-14T09:48:46;24.20;1.00
17178;DHT22;8704;52.006;4.374;2023-06-14T09:51:17;24.30;1.00
17178;DHT22;8704;52.006;4.374;2023-06-14T09:53:48;24.40;1.00
17178;DHT22;8704;52.006;4.374;2023-06-14T09:56:20;24.50;1.00
17178;DHT22;8704;52.006;4.374;2023-06-14T09:58:54;24.60;1.00
17178;DHT22;8704;52.006;4.374;2023-06-14T10:01:34;24.80;1.00
17178;DHT22;8704;52.006;4.374;2023-06-14T10:04:04;25.40;1.00
17178;DHT22;8704;52.006;4.374;2023-06-14T10:06:40;25.00;1.00
17178;DHT22;8704;52.006;4.374;2023-06-14T10:09:09;25.10;1.00
17178;DHT22;8704;52.006;4.374;2023-06-14T10:11:38;25.20;1.00
17178;DHT22;8704;52.006;4.374;2023-06-14T10:14:11;25.30;1.00
17178;DHT22;8704;52.006;4.374;2023-06-14T10:16:47;25.40;1.00
17178;DHT22;8704;52.006;4.374;2023-06-14T10:19:19;25.50;1.00
17178;DHT22;8704;52.006;4.374;2023-06-14T10:21:55;25.60;1.00
17178;DHT22;8704;52.006;4.374;2023-06-14T10:24:29;25.70;1.00
17178;DHT22;8704;52.006;4.374;2023-06-14T10:26:58;25.80;1.00
17178;DHT22;8704;52.006;4.374;2023-06-14T10:29:26;25.90;1.00
17178;DHT22;8704;52.006;4.374;2023-06-14T10:31:59;26.00;1.00
17178;DHT22;8704;52.006;4.374;2023-06-14T10:34:29;26.10;1.00
17178;DHT22;8704;52.006;4.374;2023-06-14T10:37:12;26.30;1.00
17178;DHT22;8704;52.006;4.374;2023-06-14T10:39:42;26.50;1.00
17178;DHT22;8704;52.006;4.374;2023-06-14T10:42:11;26.50;1.00
17178;DHT22;8704;52.006;4.374;2023-06-14T10:44:40;26.70;1.00
17178;DHT22;8704;52.006;4.374;2023-06-14T10:47:10;26.60;1.00
17178;DHT22;8704;52.006;4.374;2023-06-14T10:49:41;26.80;1.00
17178;DHT22;8704;52.006;4.374;2023-06-14T10:52:12;27.00;1.00
17178;DHT22;8704;52.006;4.374;2023-06-14T10:55:02;27.10;1.00
17178;DHT22;8704;52.006;4.374;2023-06-14T10:57:33;27.20;1.00
17178;DHT22;8704;52.006;4.374;2023-06-14T11:00:17;27.30;1.00
17178;DHT22;8704;52.006;4.374;2023-06-14T11:05:49;27.70;1.00
17178;DHT22;8704;52.006;4.374;2023-06-14T11:11:38;28.00;1.00
17178;DHT22;8704;52.006;4.374;2023-06-14T11:14:10;28.10;1.00
17178;DHT22;8704;52.006;4.374;2023-06-14T11:16:38;28.10;1.00
17178;DHT22;8704;52.006;4.374;2023-06-14T11:19:06;28.20;1.00
17178;DHT22;8704;52.006;4.374;2023-06-14T11:21:36;28.30;1.00
17178;DHT22;8704;52.006;4.374;2023-06-14T11:24:11;28.40;1.00
17178;DHT22;8704;52.006;4.374;2023-06-14T11:26:40;28.50;1.00
17178;DHT22;8704;52.006;4.374;2023-06-14T11:29:08;28.60;1.00
17178;DHT22;8704;52.006;4.374;2023-06-14T11:31:37;28.80;1.00
17178;DHT22;8704;52.006;4.374;2023-06-14T11:34:07;29.00;1.00
17178;DHT22;8704;52.006;4.374;2023-06-14T11:36:35;29.00;1.00
17178;DHT22;8704;52.006;4.374;2023-06-14T11:39:05;29.20;1.00
17178;DHT22;8704;52.006;4.374;2023-06-14T11:41:37;29.40;1.00
17178;DHT22;8704;52.006;4.374;2023-06-14T11:44:05;29.30;1.00
17178;DHT22;8704;52.006;4.374;2023-06-14T11:46:34;29.50;1.00
17178;DHT22;8704;52.006;4.374;2023-06-14T11:49:02;29.80;1.00
17178;DHT22;8704;52.006;4.374;2023-06-14T11:51:32;29.60;1.00
17178;DHT22;8704;52.006;4.374;2023-06-14T11:54:01;29.70;1.00
17178;DHT22;8704;52.006;4.374;2023-06-14T11:56:29;29.90;1.00
17178;DHT22;8704;52.006;4.374;2023-06-14T11:59:01;30.00;1.00
17178;DHT22;8704;52.006;4.374;2023-06-14T12:01:30;30.20;1.00
17178;DHT22;8704;52.006;4.374;2023-06-14T12:03:59;30.60;1.00
17178;DHT22;8704;52.006;4.374;2023-06-14T12:06:29;30.50;1.00
17178;DHT22;8704;52.006;4.374;2023-06-14T12:09:00;30.60;1.00
17178;DHT22;8704;52.006;4.374;2023-06-14T12:11:33;30.70;1.00
17178;DHT22;8704;52.006;4.374;2023-06-14T12:14:04;31.00;1.00
17178;DHT22;8704;52.006;4.374;2023-06-14T12:16:34;31.10;1.00
17178;DHT22;8704;52.006;4.374;2023-06-14T12:19:11;31.40;1.00
17178;DHT22;8704;52.006;4.374;2023-06-14T12:21:39;31.60;1.00
17178;DHT22;8704;52.006;4.374;2023-06-14T12:24:09;31.60;1.00
17178;DHT22;8704;52.006;4.374;2023-06-14T12:26:39;31.70;1.00
17178;DHT22;8704;52.006;4.374;2023-06-14T12:29:09;31.70;1.00
17178;DHT22;8704;52.006;4.374;2023-06-14T12:31:39;31.70;1.00
17178;DHT22;8704;52.006;4.374;2023-06-14T12:34:08;31.90;1.00
17178;DHT22;8704;52.006;4.374;2023-06-14T12:36:37;31.90;1.00
17178;DHT22;8704;52.006;4.374;2023-06-14T12:39:08;31.80;1.00
17178;DHT22;8704;52.006;4.374;2023-06-14T12:41:36;32.10;1.00
17178;DHT22;8704;52.006;4.374;2023-06-14T12:44:04;32.10;1.00
17178;DHT22;8704;52.006;4.374;2023-06-14T12:46:34;32.10;1.00
17178;DHT22;8704;52.006;4.374;2023-06-14T12:49:03;32.20;1.00
17178;DHT22;8704;52.006;4.374;2023-06-14T12:51:32;31.90;1.00
17178;DHT22;8704;52.006;4.374;2023-06-14T12:53:59;32.10;1.00
17178;DHT22;8704;52.006;4.374;2023-06-14T12:56:27;32.50;1.00
17178;DHT22;8704;52.006;4.374;2023-06-14T12:58:55;32.60;1.00
17178;DHT22;8704;52.006;4.374;2023-06-14T13:01:23;32.60;1.00
17178;DHT22;8704;52.006;4.374;2023-06-14T13:03:53;32.90;1.00
17178;DHT22;8704;52.006;4.374;2023-06-14T13:06:21;33.00;1.00
17178;DHT22;8704;52.006;4.374;2023-06-14T13:08:50;33.10;1.00
17178;DHT22;8704;52.006;4.374;2023-06-14T13:11:18;33.30;1.00
17178;DHT22;8704;52.006;4.374;2023-06-14T13:13:46;33.30;1.00
17178;DHT22;8704;52.006;4.374;2023-06-14T13:16:14;33.40;1.00
17178;DHT22;8704;52.006;4.374;2023-06-14T13:18:42;33.50;1.00
17178;DHT22;8704;52.006;4.374;2023-06-14T13:21:11;33.50;1.00
17178;DHT22;8704;52.006;4.374;2023-06-14T13:23:39;33.50;1.00
17178;DHT22;8704;52.006;4.374;2023-06-14T13:26:07;33.60;1.00
17178;DHT22;8704;52.006;4.374;2023-06-14T13:28:35;33.80;1.00
17178;DHT22;8704;52.006;4.374;2023-06-14T13:31:03;34.10;1.00
17178;DHT22;8704;52.006;4.374;2023-06-14T13:33:31;34.10;1.00
17178;DHT22;8704;52.006;4.374;2023-06-14T13:36:00;34.10;1.00
17178;DHT22;8704;52.006;4.374;2023-06-14T13:38:29;34.30;1.00
17178;DHT22;8704;52.006;4.374;2023-06-14T13:40:57;34.40;1.00
17178;DHT22;8704;52.006;4.374;2023-06-14T13:43:25;34.90;1.00
17178;DHT22;8704;52.006;4.374;2023-06-14T13:45:54;35.20;1.00
17178;DHT22;8704;52.006;4.374;2023-06-14T13:48:22;35.20;1.00
17178;DHT22;8704;52.006;4.374;2023-06-14T13:50:50;35.10;1.00
17178;DHT22;8704;52.006;4.374;2023-06-14T13:53:18;35.40;1.00
17178;DHT22;8704;52.006;4.374;2023-06-14T13:55:47;35.90;1.00
17178;DHT22;8704;52.006;4.374;2023-06-14T13:58:15;36.00;1.00
17178;DHT22;8704;52.006;4.374;2023-06-14T14:00:44;36.20;1.00
17178;DHT22;8704;52.006;4.374;2023-06-14T14:03:12;36.70;1.00
17178;DHT22;8704;52.006;4.374;2023-06-14T14:05:40;36.70;1.00
17178;DHT22;8704;52.006;4.374;2023-06-14T14:08:07;36.80;1.00
17178;DHT22;8704;52.006;4.374;2023-06-14T14:10:35;37.20;1.00
17178;DHT22;8704;52.006;4.374;2023-06-14T14:13:05;37.10;1.00
17178;DHT22;8704;52.006;4.374;2023-06-14T14:15:33;37.10;1.00
17178;DHT22;8704;52.006;4.374;2023-06-14T14:18:01;37.10;1.00
17178;DHT22;8704;52.006;4.374;2023-06-14T14:20:30;37.30;1.00
17178;DHT22;8704;52.006;4.374;2023-06-14T14:22:58;37.20;1.00
17178;DHT22;8704;52.006;4.374;2023-06-14T14:25:26;37.70;1.00
17178;DHT22;8704;52.006;4.374;2023-06-14T14:27:54;37.60;1.00
17178;DHT22;8704;52.006;4.374;2023-06-14T14:30:24;37.70;1.00
17178;DHT22;8704;52.006;4.374;2023-06-14T14:32:53;37.30;1.00
17178;DHT22;8704;52.006;4.374;2023-06-14T14:35:21;37.80;1.00
17178;DHT22;8704;52.006;4.374;2023-06-14T14:37:51;37.80;1.00
17178;DHT22;8704;52.006;4.374;2023-06-14T14:40:20;37.70;1.00
17178;DHT22;8704;52.006;4.374;2023-06-14T14:42:48;38.00;1.00
17178;DHT22;8704;52.006;4.374;2023-06-14T14:45:16;38.10;1.00
17178;DHT22;8704;52.006;4.374;2023-06-14T14:47:45;38.10;1.00
17178;DHT22;8704;52.006;4.374;2023-06-14T14:50:13;38.20;1.00
17178;DHT22;8704;52.006;4.374;2023-06-14T14:52:43;38.80;1.00
17178;DHT22;8704;52.006;4.374;2023-06-14T14:55:11;39.00;1.00
17178;DHT22;8704;52.006;4.374;2023-06-14T14:57:39;38.90;1.00
17178;DHT22;8704;52.006;4.374;2023-06-14T15:00:08;39.60;1.00
17178;DHT22;8704;52.006;4.374;2023-06-14T15:02:39;39.60;1.00
17178;DHT22;8704;52.006;4.374;2023-06-14T15:05:09;39.60;1.00
17178;DHT22;8704;52.006;4.374;2023-06-14T15:07:37;39.30;1.00
17178;DHT22;8704;52.006;4.374;2023-06-14T15:10:07;39.90;1.00
17178;DHT22;8704;52.006;4.374;2023-06-14T15:12:36;39.80;1.00
17178;DHT22;8704;52.006;4.374;2023-06-14T15:15:04;40.20;1.00
17178;DHT22;8704;52.006;4.374;2023-06-14T15:17:32;40.00;1.00
17178;DHT22;8704;52.006;4.374;2023-06-14T15:20:01;40.40;1.00
17178;DHT22;8704;52.006;4.374;2023-06-14T15:22:30;40.40;1.00
17178;DHT22;8704;52.006;4.374;2023-06-14T15:24:58;40.60;1.00
17178;DHT22;8704;52.006;4.374;2023-06-14T15:27:26;40.60;1.00
17178;DHT22;8704;52.006;4.374;2023-06-14T15:29:55;40.20;1.00
17178;DHT22;8704;52.006;4.374;2023-06-14T15:32:22;40.20;1.00
17178;DHT22;8704;52.006;4.374;2023-06-14T15:34:50;40.30;1.00
17178;DHT22;8704;52.006;4.374;2023-06-14T15:37:18;40.40;1.00
17178;DHT22;8704;52.006;4.374;2023-06-14T15:39:48;40.30;1.00
17178;DHT22;8704;52.006;4.374;2023-06-14T15:42:16;40.40;1.00
17178;DHT22;8704;52.006;4.374;2023-06-14T15:44:44;40.10;1.00
17178;DHT22;8704;52.006;4.374;2023-06-14T15:47:14;40.20;1.00
17178;DHT22;8704;52.006;4.374;2023-06-14T15:49:41;40.50;1.00
17178;DHT22;8704;52.006;4.374;2023-06-14T15:52:09;40.40;1.00
17178;DHT22;8704;52.006;4.374;2023-06-14T15:54:38;40.20;1.00
17178;DHT22;8704;52.006;4.374;2023-06-14T15:57:07;40.70;1.00
17178;DHT22;8704;52.006;4.374;2023-06-14T15:59:36;40.70;1.00
17178;DHT22;8704;52.006;4.374;2023-06-14T16:02:04;40.30;1.00
17178;DHT22;8704;52.006;4.374;2023-06-14T16:04:33;40.50;1.00
17178;DHT22;8704;52.006;4.374;2023-06-14T16:07:01;40.70;1.00
17178;DHT22;8704;52.006;4.374;2023-06-14T16:09:29;39.90;1.00
17178;DHT22;8704;52.006;4.374;2023-06-14T16:11:57;40.20;1.00
17178;DHT22;8704;52.006;4.374;2023-06-14T16:14:26;40.00;1.00
17178;DHT22;8704;52.006;4.374;2023-06-14T16:16:54;40.30;1.00
17178;DHT22;8704;52.006;4.374;2023-06-14T16:19:22;40.00;1.00
17178;DHT22;8704;52.006;4.374;2023-06-14T16:21:50;39.50;1.00